sensor_id;sensor_type;location;lat;lon;timestamp;pressure;altitude;pressure_sealevel;temperature;humidity
29163;BME280;20331;53.144;8.208;2023-05-29T00:06:20;102530.03;;;12.97;72.28
29163;BME280;20331;53.144;8.208;2023-05-29T00:16:41;102551.81;;;12.88;71.71
29163;BME280;20331;53.144;8.208;2023-05-29T00:27:05;102544.09;;;12.82;71.86
29163;BME280;20331;53.144;8.208;2023-05-29T00:37:26;102551.97;;;12.75;72.61
29163;BME280;20331;53.144;8.208;2023-05-29T00:47:48;102555.53;;;12.66;71.68
29163;BME280;20331;53.144;8.208;2023-05-29T00:58:10;102555.66;;;12.56;72.32
29163;BME280;20331;53.144;8.208;2023-05-29T01:08:31;102556.56;;;12.52;72.37
29163;BME280;20331;53.144;8.208;2023-05-29T01:29:28;102559.28;;;12.40;72.42
29163;BME280;20331;53.144;8.208;2023-05-29T01:39:51;102549.81;;;12.34;72.12
29163;BME280;20331;53.144;8.208;2023-05-29T01:50:13;102558.53;;;12.26;72.73
29163;BME280;20331;53.144;8.208;2023-05-29T02:00:36;102572.41;;;12.25;73.27
29163;BME280;20331;53.144;8.208;2023-05-29T02:10:57;102575.91;;;12.19;73.53
29163;BME280;20331;53.144;8.208;2023-05-29T02:21:19;102575.94;;;12.13;73.59
29163;BME280;20331;53.144;8.208;2023-05-29T02:31:40;102579.50;;;12.03;73.48
29163;BME280;20331;53.144;8.208;2023-05-29T02:42:02;102575.19;;;12.00;73.89
29163;BME280;20331;53.144;8.208;2023-05-29T02:52:23;102568.38;;;11.87;72.38
29163;BME280;20331;53.144;8.208;2023-05-29T03:02:45;102573.59;;;11.83;73.51
29163;BME280;20331;53.144;8.208;2023-05-29T03:13:07;102575.34;;;11.78;73.42
29163;BME280;20331;53.144;8.208;2023-05-29T03:23:28;102579.69;;;11.76;73.56
29163;BME280;20331;53.144;8.208;2023-05-29T03:33:50;102578.00;;;11.69;74.94
29163;BME280;20331;53.144;8.208;2023-05-29T03:44:11;102581.47;;;11.63;74.05
29163;BME280;20331;53.144;8.208;2023-05-29T03:54:33;102590.16;;;11.56;74.21
29163;BME280;20331;53.144;8.208;2023-05-29T04:04:54;102594.47;;;11.54;75.67
29163;BME280;20331;53.144;8.208;2023-05-29T04:15:16;102597.94;;;11.50;74.38
29163;BME280;20331;53.144;8.208;2023-05-29T04:25:38;102610.91;;;11.55;74.59
29163;BME280;20331;53.144;8.208;2023-05-29T04:35:59;102613.44;;;11.64;74.81
29163;BME280;20331;53.144;8.208;2023-05-29T04:46:22;102625.56;;;11.69;73.60
29163;BME280;20331;53.144;8.208;2023-05-29T04:56:45;102634.16;;;11.79;73.52
29163;BME280;20331;53.144;8.208;2023-05-29T05:07:07;102653.09;;;11.91;74.83
29163;BME280;20331;53.144;8.208;2023-05-29T05:17:29;102652.25;;;11.88;72.91
29163;BME280;20331;53.144;8.208;2023-05-29T05:27:51;102636.69;;;11.85;74.26
29163;BME280;20331;53.144;8.208;2023-05-29T05:38:12;102625.34;;;12.02;72.97
29163;BME280;20331;53.144;8.208;2023-05-29T05:48:34;102634.72;;;12.23;73.53
29163;BME280;20331;53.144;8.208;2023-05-29T05:58:55;102635.41;;;12.42;74.01
29163;BME280;20331;53.144;8.208;2023-05-29T06:09:17;102640.44;;;12.61;73.79
29163;BME280;20331;53.144;8.208;2023-05-29T06:19:40;102651.47;;;12.84;72.12
29163;BME280;20331;53.144;8.208;2023-05-29T06:30:02;102658.22;;;13.03;70.19
29163;BME280;20331;53.144;8.208;2023-05-29T06:40:23;102666.56;;;13.30;70.29
29163;BME280;20331;53.144;8.208;2023-05-29T06:50:45;102668.78;;;13.61;69.74
29163;BME280;20331;53.144;8.208;2023-05-29T07:01:06;102661.56;;;13.83;68.32
29163;BME280;20331;53.144;8.208;2023-05-29T07:11:29;102667.47;;;13.94;66.89
29163;BME280;20331;53.144;8.208;2023-05-29T07:21:50;102668.88;;;14.16;68.17
29163;BME280;20331;53.144;8.208;2023-05-29T07:32:12;102673.06;;;14.26;67.18
29163;BME280;20331;53.144;8.208;2023-05-29T07:42:33;102687.59;;;14.42;65.58
29163;BME280;20331;53.144;8.208;2023-05-29T07:52:55;102686.63;;;14.49;65.89
29163;BME280;20331;53.144;8.208;2023-05-29T08:03:17;102678.00;;;14.46;66.92
29163;BME280;20331;53.144;8.208;2023-05-29T08:13:39;102690.91;;;14.53;65.19
29163;BME280;20331;53.144;8.208;2023-05-29T08:24:01;102692.56;;;14.57;66.02
29163;BME280;20331;53.144;8.208;2023-05-29T08:34:23;102701.88;;;14.72;66.05
29163;BME280;20331;53.144;8.208;2023-05-29T08:44:46;102709.28;;;14.94;66.41
29163;BME280;20331;53.144;8.208;2023-05-29T08:55:08;102712.72;;;14.96;65.28
29163;BME280;20331;53.144;8.208;2023-05-29T09:05:29;102710.69;;;15.13;65.42
29163;BME280;20331;53.144;8.208;2023-05-29T09:15:56;102703.41;;;15.31;63.68
29163;BME280;20331;53.144;8.208;2023-05-29T09:26:18;102705.63;;;15.50;64.29
29163;BME280;20331;53.144;8.208;2023-05-29T09:36:42;102690.69;;;15.57;63.45
29163;BME280;20331;53.144;8.208;2023-05-29T09:47:03;102695.28;;;15.87;64.09
29163;BME280;20331;53.144;8.208;2023-05-29T09:57:25;102694.00;;;16.04;63.99
29163;BME280;20331;53.144;8.208;2023-05-29T10:07:49;102696.44;;;16.12;65.07
29163;BME280;20331;53.144;8.208;2023-05-29T10:18:24;102681.28;;;16.28;63.92
29163;BME280;20331;53.144;8.208;2023-05-29T10:28:58;102685.44;;;16.36;63.40
29163;BME280;20331;53.144;8.208;2023-05-29T10:39:24;102667.75;;;16.47;64.07
29163;BME280;20331;53.144;8.208;2023-05-29T10:49:49;102680.91;;;16.78;63.97
29163;BME280;20331;53.144;8.208;2023-05-29T11:00:12;102671.25;;;17.14;62.45
29163;BME280;20331;53.144;8.208;2023-05-29T11:21:03;102655.91;;;17.61;62.37
29163;BME280;20331;53.144;8.208;2023-05-29T11:31:28;102661.72;;;17.71;62.46
29163;BME280;20331;53.144;8.208;2023-05-29T11:41:52;102655.13;;;17.87;62.41
29163;BME280;20331;53.144;8.208;2023-05-29T11:52:14;102669.69;;;17.95;61.65
29163;BME280;20331;53.144;8.208;2023-05-29T12:02:37;102663.81;;;17.89;61.71
29163;BME280;20331;53.144;8.208;2023-05-29T12:12:59;102666.13;;;17.70;61.20
29163;BME280;20331;53.144;8.208;2023-05-29T12:23:22;102671.16;;;17.46;62.07
29163;BME280;20331;53.144;8.208;2023-05-29T12:33:44;102680.78;;;17.15;62.89
29163;BME280;20331;53.144;8.208;2023-05-29T12:44:06;102676.88;;;16.98;64.12
29163;BME280;20331;53.144;8.208;2023-05-29T12:54:28;102678.97;;;16.86;62.53
29163;BME280;20331;53.144;8.208;2023-05-29T13:04:49;102679.91;;;16.83;62.69
29163;BME280;20331;53.144;8.208;2023-05-29T13:15:11;102679.94;;;16.82;63.43
29163;BME280;20331;53.144;8.208;2023-05-29T13:25:33;102679.16;;;16.78;62.38
29163;BME280;20331;53.144;8.208;2023-05-29T13:35:54;102673.16;;;16.75;61.55
29163;BME280;20331;53.144;8.208;2023-05-29T13:46:18;102667.16;;;16.71;61.05
29163;BME280;20331;53.144;8.208;2023-05-29T13:56:40;102674.25;;;16.66;61.14
29163;BME280;20331;53.144;8.208;2023-05-29T14:07:01;102667.31;;;16.65;56.99
29163;BME280;20331;53.144;8.208;2023-05-29T14:17:23;102677.13;;;16.56;56.38
29163;BME280;20331;53.144;8.208;2023-05-29T14:27:44;102663.09;;;16.60;61.42
29163;BME280;20331;53.144;8.208;2023-05-29T14:38:06;102663.09;;;16.60;57.04
29163;BME280;20331;53.144;8.208;2023-05-29T14:48:27;102669.19;;;16.60;59.38
29163;BME280;20331;53.144;8.208;2023-05-29T14:58:49;102673.59;;;16.58;60.73
29163;BME280;20331;53.144;8.208;2023-05-29T15:09:10;102675.50;;;16.52;59.72
29163;BME280;20331;53.144;8.208;2023-05-29T15:19:32;102678.06;;;16.53;55.51
29163;BME280;20331;53.144;8.208;2023-05-29T15:29:53;102667.88;;;16.41;56.08
29163;BME280;20331;53.144;8.208;2023-05-29T15:40:28;102673.91;;;16.43;59.98
29163;BME280;20331;53.144;8.208;2023-05-29T15:50:50;102679.63;;;16.60;59.72
29163;BME280;20331;53.144;8.208;2023-05-29T16:01:11;102670.09;;;16.58;55.17
29163;BME280;20331;53.144;8.208;2023-05-29T16:11:33;102677.47;;;16.77;55.97
29163;BME280;20331;53.144;8.208;2023-05-29T16:21:54;102676.56;;;17.40;59.20
29163;BME280;20331;53.144;8.208;2023-05-29T16:32:15;102687.16;;;17.37;58.79
29163;BME280;20331;53.144;8.208;2023-05-29T16:42:37;102698.59;;;17.33;58.76
29163;BME280;20331;53.144;8.208;2023-05-29T16:52:58;102701.34;;;17.28;58.63
29163;BME280;20331;53.144;8.208;2023-05-29T17:03:20;102709.16;;;17.30;59.53
29163;BME280;20331;53.144;8.208;2023-05-29T17:13:42;102696.56;;;16.79;59.05
29163;BME280;20331;53.144;8.208;2023-05-29T17:24:03;102709.78;;;16.38;61.56
29163;BME280;20331;53.144;8.208;2023-05-29T17:34:28;102703.84;;;16.30;60.37
29163;BME280;20331;53.144;8.208;2023-05-29T17:44:51;102694.59;;;16.17;61.79
29163;BME280;20331;53.144;8.208;2023-05-29T17:55:12;102701.81;;;16.06;60.13
29163;BME280;20331;53.144;8.208;2023-05-29T18:05:34;102705.94;;;15.78;60.95
29163;BME280;20331;53.144;8.208;2023-05-29T18:15:55;102727.31;;;15.54;63.13
29163;BME280;20331;53.144;8.208;2023-05-29T18:26:27;102722.53;;;15.30;64.00
29163;BME280;20331;53.144;8.208;2023-05-29T18:36:49;102714.19;;;15.13;62.76
29163;BME280;20331;53.144;8.208;2023-05-29T18:47:10;102705.97;;;14.86;66.39
29163;BME280;20331;53.144;8.208;2023-05-29T18:57:34;102725.09;;;14.87;66.68
29163;BME280;20331;53.144;8.208;2023-05-29T19:07:56;102717.34;;;14.81;66.50
29163;BME280;20331;53.144;8.208;2023-05-29T19:18:21;102730.81;;;14.55;67.12
29163;BME280;20331;53.144;8.208;2023-05-29T19:28:42;102723.28;;;14.37;66.70
29163;BME280;20331;53.144;8.208;2023-05-29T19:39:04;102724.72;;;13.97;67.61
29163;BME280;20331;53.144;8.208;2023-05-29T19:49:25;102723.16;;;13.81;68.02
29163;BME280;20331;53.144;8.208;2023-05-29T19:59:47;102739.06;;;13.60;69.84
29163;BME280;20331;53.144;8.208;2023-05-29T20:10:10;102741.03;;;13.40;70.32
29163;BME280;20331;53.144;8.208;2023-05-29T20:30:25;102750.78;;;13.15;72.27
29163;BME280;20331;53.144;8.208;2023-05-29T20:40:48;102753.53;;;13.03;71.72
29163;BME280;20331;53.144;8.208;2023-05-29T20:51:16;102749.22;;;12.96;72.34
29163;BME280;20331;53.144;8.208;2023-05-29T21:02:05;102744.00;;;12.97;73.12
29163;BME280;20331;53.144;8.208;2023-05-29T21:12:40;102739.69;;;12.95;72.76
29163;BME280;20331;53.144;8.208;2023-05-29T21:23:02;102751.84;;;12.93;73.41
29163;BME280;20331;53.144;8.208;2023-05-29T21:33:24;102745.84;;;12.85;73.11
29163;BME280;20331;53.144;8.208;2023-05-29T21:43:47;102736.25;;;12.91;73.86
29163;BME280;20331;53.144;8.208;2023-05-29T21:54:08;102733.66;;;12.91;73.21
29163;BME280;20331;53.144;8.208;2023-05-29T22:04:30;102738.91;;;12.88;73.82
29163;BME280;20331;53.144;8.208;2023-05-29T22:14:52;102743.22;;;12.91;73.35
29163;BME280;20331;53.144;8.208;2023-05-29T22:25:16;102737.13;;;12.92;75.09
29163;BME280;20331;53.144;8.208;2023-05-29T22:35:39;102750.13;;;12.90;74.98
29163;BME280;20331;53.144;8.208;2023-05-29T22:46:01;102735.38;;;12.94;74.76
29163;BME280;20331;53.144;8.208;2023-05-29T22:56:23;102745.75;;;12.97;74.08
29163;BME280;20331;53.144;8.208;2023-05-29T23:06:45;102728.47;;;12.94;74.16
29163;BME280;20331;53.144;8.208;2023-05-29T23:17:08;102738.84;;;12.96;74.70
29163;BME280;20331;53.144;8.208;2023-05-29T23:27:30;102720.56;;;13.00;74.95
29163;BME280;20331;53.144;8.208;2023-05-29T23:37:53;102708.47;;;12.99;74.19
29163;BME280;20331;53.144;8.208;2023-05-29T23:48:14;102713.69;;;12.99;74.11
29163;BME280;20331;53.144;8.208;2023-05-29T23:58:38;102716.28;;;12.99;74.85
